sensor_id;sensor_type;location;lat;lon;timestamp;P1;durP1;ratioP1;P2;durP2;ratioP2
72325;SDS011;60278;47.980;18.780;2024-02-21T00:00:35;11.00;;;5.53;;
72325;SDS011;60278;47.980;18.780;2024-02-21T00:03:40;8.15;;;5.30;;
72325;SDS011;60278;47.980;18.780;2024-02-21T00:06:42;8.65;;;5.60;;
72325;SDS011;60278;47.980;18.780;2024-02-21T00:09:44;6.57;;;4.35;;
72325;SDS011;60278;47.980;18.780;2024-02-21T00:12:46;6.72;;;4.43;;
72325;SDS011;60278;47.980;18.780;2024-02-21T00:15:48;8.20;;;4.80;;
72325;SDS011;60278;47.980;18.780;2024-02-21T00:18:50;8.32;;;4.35;;
72325;SDS011;60278;47.980;18.780;2024-02-21T00:21:52;6.95;;;4.32;;
72325;SDS011;60278;47.980;18.780;2024-02-21T00:24:54;7.25;;;4.35;;
72325;SDS011;60278;47.980;18.780;2024-02-21T00:27:56;9.65;;;4.55;;
72325;SDS011;60278;47.980;18.780;2024-02-21T00:30:58;10.20;;;4.57;;
72325;SDS011;60278;47.980;18.780;2024-02-21T00:34:00;9.02;;;4.60;;
72325;SDS011;60278;47.980;18.780;2024-02-21T00:37:02;9.10;;;5.05;;
72325;SDS011;60278;47.980;18.780;2024-02-21T00:40:05;7.38;;;3.95;;
72325;SDS011;60278;47.980;18.780;2024-02-21T00:43:07;8.75;;;4.30;;
72325;SDS011;60278;47.980;18.780;2024-02-21T00:46:09;7.93;;;3.83;;
72325;SDS011;60278;47.980;18.780;2024-02-21T00:49:11;8.77;;;3.53;;
72325;SDS011;60278;47.980;18.780;2024-02-21T00:52:13;6.45;;;4.13;;
72325;SDS011;60278;47.980;18.780;2024-02-21T00:55:15;7.38;;;4.28;;
72325;SDS011;60278;47.980;18.780;2024-02-21T00:58:17;7.68;;;4.28;;
72325;SDS011;60278;47.980;18.780;2024-02-21T01:01:25;7.93;;;3.67;;
72325;SDS011;60278;47.980;18.780;2024-02-21T01:04:28;8.32;;;4.13;;
72325;SDS011;60278;47.980;18.780;2024-02-21T01:07:30;7.80;;;3.92;;
72325;SDS011;60278;47.980;18.780;2024-02-21T01:10:32;9.70;;;4.00;;
72325;SDS011;60278;47.980;18.780;2024-02-21T01:13:34;9.80;;;5.18;;
72325;SDS011;60278;47.980;18.780;2024-02-21T01:16:36;7.63;;;4.00;;
72325;SDS011;60278;47.980;18.780;2024-02-21T01:19:39;9.70;;;4.22;;
72325;SDS011;60278;47.980;18.780;2024-02-21T01:22:41;9.25;;;4.85;;
72325;SDS011;60278;47.980;18.780;2024-02-21T01:25:43;7.80;;;3.88;;
72325;SDS011;60278;47.980;18.780;2024-02-21T01:28:45;8.85;;;3.30;;
72325;SDS011;60278;47.980;18.780;2024-02-21T01:31:47;7.40;;;3.50;;
72325;SDS011;60278;47.980;18.780;2024-02-21T01:34:50;7.07;;;3.83;;
72325;SDS011;60278;47.980;18.780;2024-02-21T01:37:52;7.93;;;3.95;;
72325;SDS011;60278;47.980;18.780;2024-02-21T01:40:54;6.88;;;4.20;;
72325;SDS011;60278;47.980;18.780;2024-02-21T01:43:57;7.57;;;3.90;;
72325;SDS011;60278;47.980;18.780;2024-02-21T01:46:59;8.63;;;4.43;;
72325;SDS011;60278;47.980;18.780;2024-02-21T01:50:02;8.30;;;3.90;;
72325;SDS011;60278;47.980;18.780;2024-02-21T01:53:04;7.43;;;4.63;;
72325;SDS011;60278;47.980;18.780;2024-02-21T01:56:07;6.65;;;4.20;;
72325;SDS011;60278;47.980;18.780;2024-02-21T01:59:09;6.65;;;3.90;;
72325;SDS011;60278;47.980;18.780;2024-02-21T02:02:11;6.10;;;3.67;;
72325;SDS011;60278;47.980;18.780;2024-02-21T02:05:14;8.82;;;4.18;;
72325;SDS011;60278;47.980;18.780;2024-02-21T02:08:17;8.35;;;4.25;;
72325;SDS011;60278;47.980;18.780;2024-02-21T02:11:19;9.30;;;5.55;;
72325;SDS011;60278;47.980;18.780;2024-02-21T02:14:21;11.45;;;5.18;;
72325;SDS011;60278;47.980;18.780;2024-02-21T02:17:23;11.50;;;4.77;;
72325;SDS011;60278;47.980;18.780;2024-02-21T02:20:25;10.88;;;4.65;;
72325;SDS011;60278;47.980;18.780;2024-02-21T02:23:28;10.07;;;4.60;;
72325;SDS011;60278;47.980;18.780;2024-02-21T02:26:31;8.82;;;4.40;;
72325;SDS011;60278;47.980;18.780;2024-02-21T02:29:33;8.23;;;4.82;;
72325;SDS011;60278;47.980;18.780;2024-02-21T02:32:36;10.07;;;4.30;;
72325;SDS011;60278;47.980;18.780;2024-02-21T02:35:38;8.23;;;4.15;;
72325;SDS011;60278;47.980;18.780;2024-02-21T02:38:40;8.63;;;4.13;;
72325;SDS011;60278;47.980;18.780;2024-02-21T02:41:42;6.18;;;3.47;;
72325;SDS011;60278;47.980;18.780;2024-02-21T02:44:44;7.75;;;4.40;;
72325;SDS011;60278;47.980;18.780;2024-02-21T02:47:46;7.03;;;4.03;;
72325;SDS011;60278;47.980;18.780;2024-02-21T02:50:49;10.38;;;4.78;;
72325;SDS011;60278;47.980;18.780;2024-02-21T02:53:51;10.50;;;4.40;;
72325;SDS011;60278;47.980;18.780;2024-02-21T02:56:53;8.23;;;4.00;;
72325;SDS011;60278;47.980;18.780;2024-02-21T02:59:55;11.48;;;4.88;;
72325;SDS011;60278;47.980;18.780;2024-02-21T03:02:57;8.60;;;4.13;;
72325;SDS011;60278;47.980;18.780;2024-02-21T03:05:59;8.00;;;3.50;;
72325;SDS011;60278;47.980;18.780;2024-02-21T03:09:01;8.68;;;4.20;;
72325;SDS011;60278;47.980;18.780;2024-02-21T03:12:04;10.05;;;4.75;;
72325;SDS011;60278;47.980;18.780;2024-02-21T03:15:06;11.85;;;4.65;;
72325;SDS011;60278;47.980;18.780;2024-02-21T03:18:08;9.23;;;3.83;;
72325;SDS011;60278;47.980;18.780;2024-02-21T03:21:10;8.98;;;4.57;;
72325;SDS011;60278;47.980;18.780;2024-02-21T03:24:12;10.25;;;5.05;;
72325;SDS011;60278;47.980;18.780;2024-02-21T03:27:15;8.93;;;4.88;;
72325;SDS011;60278;47.980;18.780;2024-02-21T03:30:17;10.20;;;5.13;;
72325;SDS011;60278;47.980;18.780;2024-02-21T03:33:19;9.33;;;5.23;;
72325;SDS011;60278;47.980;18.780;2024-02-21T03:36:23;11.35;;;5.53;;
72325;SDS011;60278;47.980;18.780;2024-02-21T03:39:25;13.82;;;5.63;;
72325;SDS011;60278;47.980;18.780;2024-02-21T03:42:27;10.38;;;5.72;;
72325;SDS011;60278;47.980;18.780;2024-02-21T03:45:31;9.30;;;5.80;;
72325;SDS011;60278;47.980;18.780;2024-02-21T03:48:33;9.80;;;5.90;;
72325;SDS011;60278;47.980;18.780;2024-02-21T03:51:35;10.63;;;6.53;;
72325;SDS011;60278;47.980;18.780;2024-02-21T03:54:37;11.02;;;6.70;;
72325;SDS011;60278;47.980;18.780;2024-02-21T03:57:39;10.52;;;7.88;;
72325;SDS011;60278;47.980;18.780;2024-02-21T04:00:41;18.92;;;10.68;;
72325;SDS011;60278;47.980;18.780;2024-02-21T04:03:44;26.97;;;11.27;;
72325;SDS011;60278;47.980;18.780;2024-02-21T04:06:46;18.02;;;9.52;;
72325;SDS011;60278;47.980;18.780;2024-02-21T04:09:49;19.67;;;11.70;;
72325;SDS011;60278;47.980;18.780;2024-02-21T04:12:51;19.15;;;10.65;;
72325;SDS011;60278;47.980;18.780;2024-02-21T04:15:53;28.27;;;14.60;;
72325;SDS011;60278;47.980;18.780;2024-02-21T04:18:55;53.87;;;26.60;;
72325;SDS011;60278;47.980;18.780;2024-02-21T04:21:57;38.10;;;21.63;;
72325;SDS011;60278;47.980;18.780;2024-02-21T04:24:59;40.53;;;21.88;;
72325;SDS011;60278;47.980;18.780;2024-02-21T04:28:02;14.73;;;8.10;;
72325;SDS011;60278;47.980;18.780;2024-02-21T04:31:04;14.85;;;8.60;;
72325;SDS011;60278;47.980;18.780;2024-02-21T04:34:06;15.80;;;10.00;;
72325;SDS011;60278;47.980;18.780;2024-02-21T04:37:09;16.30;;;9.05;;
72325;SDS011;60278;47.980;18.780;2024-02-21T04:40:11;21.65;;;13.88;;
72325;SDS011;60278;47.980;18.780;2024-02-21T04:43:13;39.92;;;19.58;;
72325;SDS011;60278;47.980;18.780;2024-02-21T04:46:15;28.08;;;14.50;;
72325;SDS011;60278;47.980;18.780;2024-02-21T04:49:18;35.40;;;16.00;;
72325;SDS011;60278;47.980;18.780;2024-02-21T04:52:20;35.58;;;25.98;;
72325;SDS011;60278;47.980;18.780;2024-02-21T04:55:22;28.70;;;14.18;;
72325;SDS011;60278;47.980;18.780;2024-02-21T04:58:24;39.58;;;17.25;;
72325;SDS011;60278;47.980;18.780;2024-02-21T05:01:27;25.08;;;11.73;;
72325;SDS011;60278;47.980;18.780;2024-02-21T05:04:30;36.23;;;17.30;;
72325;SDS011;60278;47.980;18.780;2024-02-21T05:07:32;52.83;;;21.45;;
72325;SDS011;60278;47.980;18.780;2024-02-21T05:10:34;42.25;;;17.48;;
72325;SDS011;60278;47.980;18.780;2024-02-21T05:13:36;27.60;;;12.75;;
72325;SDS011;60278;47.980;18.780;2024-02-21T05:16:39;28.98;;;14.85;;
72325;SDS011;60278;47.980;18.780;2024-02-21T05:19:41;23.73;;;12.93;;
72325;SDS011;60278;47.980;18.780;2024-02-21T05:22:44;19.80;;;11.38;;
72325;SDS011;60278;47.980;18.780;2024-02-21T05:25:46;31.33;;;13.90;;
72325;SDS011;60278;47.980;18.780;2024-02-21T05:28:48;19.73;;;11.38;;
72325;SDS011;60278;47.980;18.780;2024-02-21T05:34:53;24.73;;;14.73;;
72325;SDS011;60278;47.980;18.780;2024-02-21T05:37:56;23.83;;;15.35;;
72325;SDS011;60278;47.980;18.780;2024-02-21T05:40:59;26.05;;;15.80;;
72325;SDS011;60278;47.980;18.780;2024-02-21T05:44:01;36.58;;;18.65;;
72325;SDS011;60278;47.980;18.780;2024-02-21T05:47:03;106.35;;;36.40;;
72325;SDS011;60278;47.980;18.780;2024-02-21T05:50:06;62.93;;;24.97;;
72325;SDS011;60278;47.980;18.780;2024-02-21T05:53:08;160.35;;;50.67;;
72325;SDS011;60278;47.980;18.780;2024-02-21T05:56:12;140.63;;;46.88;;
72325;SDS011;60278;47.980;18.780;2024-02-21T05:59:14;52.72;;;28.67;;
72325;SDS011;60278;47.980;18.780;2024-02-21T06:02:16;41.40;;;23.85;;
72325;SDS011;60278;47.980;18.780;2024-02-21T06:05:19;54.37;;;23.10;;
72325;SDS011;60278;47.980;18.780;2024-02-21T06:08:21;29.73;;;15.63;;
72325;SDS011;60278;47.980;18.780;2024-02-21T06:11:23;33.17;;;17.30;;
72325;SDS011;60278;47.980;18.780;2024-02-21T06:14:25;40.88;;;23.48;;
72325;SDS011;60278;47.980;18.780;2024-02-21T06:17:27;43.10;;;21.63;;
72325;SDS011;60278;47.980;18.780;2024-02-21T06:20:29;42.30;;;21.13;;
72325;SDS011;60278;47.980;18.780;2024-02-21T06:23:31;49.85;;;20.77;;
72325;SDS011;60278;47.980;18.780;2024-02-21T06:26:33;37.70;;;18.30;;
72325;SDS011;60278;47.980;18.780;2024-02-21T06:29:35;48.33;;;22.13;;
72325;SDS011;60278;47.980;18.780;2024-02-21T06:32:37;50.13;;;24.98;;
72325;SDS011;60278;47.980;18.780;2024-02-21T06:35:40;78.27;;;37.93;;
72325;SDS011;60278;47.980;18.780;2024-02-21T06:38:44;41.05;;;20.75;;
72325;SDS011;60278;47.980;18.780;2024-02-21T06:41:46;39.75;;;21.15;;
72325;SDS011;60278;47.980;18.780;2024-02-21T06:44:49;33.08;;;17.33;;
72325;SDS011;60278;47.980;18.780;2024-02-21T06:47:51;19.70;;;9.02;;
72325;SDS011;60278;47.980;18.780;2024-02-21T06:50:53;16.43;;;7.83;;
72325;SDS011;60278;47.980;18.780;2024-02-21T06:53:56;10.52;;;6.10;;
72325;SDS011;60278;47.980;18.780;2024-02-21T06:56:58;13.45;;;7.93;;
72325;SDS011;60278;47.980;18.780;2024-02-21T07:00:00;23.42;;;13.30;;
72325;SDS011;60278;47.980;18.780;2024-02-21T07:03:02;17.52;;;10.32;;
72325;SDS011;60278;47.980;18.780;2024-02-21T07:06:04;15.90;;;9.03;;
72325;SDS011;60278;47.980;18.780;2024-02-21T07:09:06;27.23;;;13.27;;
72325;SDS011;60278;47.980;18.780;2024-02-21T07:12:09;16.95;;;7.72;;
72325;SDS011;60278;47.980;18.780;2024-02-21T07:15:11;17.63;;;9.38;;
72325;SDS011;60278;47.980;18.780;2024-02-21T07:18:13;11.00;;;5.82;;
72325;SDS011;60278;47.980;18.780;2024-02-21T07:21:15;11.03;;;6.00;;
72325;SDS011;60278;47.980;18.780;2024-02-21T07:24:17;11.32;;;4.90;;
72325;SDS011;60278;47.980;18.780;2024-02-21T07:27:19;10.60;;;5.63;;
72325;SDS011;60278;47.980;18.780;2024-02-21T07:30:21;10.25;;;4.60;;
72325;SDS011;60278;47.980;18.780;2024-02-21T07:33:23;8.40;;;4.72;;
72325;SDS011;60278;47.980;18.780;2024-02-21T07:36:29;9.90;;;4.53;;
72325;SDS011;60278;47.980;18.780;2024-02-21T07:39:31;7.22;;;4.18;;
72325;SDS011;60278;47.980;18.780;2024-02-21T07:42:37;11.63;;;5.07;;
72325;SDS011;60278;47.980;18.780;2024-02-21T07:45:39;15.82;;;6.72;;
72325;SDS011;60278;47.980;18.780;2024-02-21T07:48:45;15.90;;;7.15;;
72325;SDS011;60278;47.980;18.780;2024-02-21T07:51:47;14.60;;;6.67;;
72325;SDS011;60278;47.980;18.780;2024-02-21T07:54:49;15.98;;;6.68;;
72325;SDS011;60278;47.980;18.780;2024-02-21T07:57:51;15.75;;;7.55;;
72325;SDS011;60278;47.980;18.780;2024-02-21T08:00:53;10.40;;;5.78;;
72325;SDS011;60278;47.980;18.780;2024-02-21T08:03:58;10.55;;;5.63;;
72325;SDS011;60278;47.980;18.780;2024-02-21T08:07:02;9.67;;;3.57;;
72325;SDS011;60278;47.980;18.780;2024-02-21T08:10:06;10.20;;;4.65;;
72325;SDS011;60278;47.980;18.780;2024-02-21T08:13:11;9.63;;;4.25;;
72325;SDS011;60278;47.980;18.780;2024-02-21T08:16:15;10.75;;;4.63;;
72325;SDS011;60278;47.980;18.780;2024-02-21T08:19:17;13.18;;;4.53;;
72325;SDS011;60278;47.980;18.780;2024-02-21T08:22:20;10.17;;;3.80;;
72325;SDS011;60278;47.980;18.780;2024-02-21T08:25:24;12.90;;;3.92;;
72325;SDS011;60278;47.980;18.780;2024-02-21T08:28:26;9.63;;;4.82;;
72325;SDS011;60278;47.980;18.780;2024-02-21T08:31:32;10.02;;;4.13;;
72325;SDS011;60278;47.980;18.780;2024-02-21T08:34:36;10.20;;;5.18;;
72325;SDS011;60278;47.980;18.780;2024-02-21T08:37:38;12.07;;;4.57;;
72325;SDS011;60278;47.980;18.780;2024-02-21T08:40:40;7.55;;;3.92;;
72325;SDS011;60278;47.980;18.780;2024-02-21T08:43:42;11.48;;;4.93;;
72325;SDS011;60278;47.980;18.780;2024-02-21T08:46:44;15.00;;;4.10;;
72325;SDS011;60278;47.980;18.780;2024-02-21T08:49:49;8.50;;;4.30;;
72325;SDS011;60278;47.980;18.780;2024-02-21T08:52:51;10.87;;;5.00;;
72325;SDS011;60278;47.980;18.780;2024-02-21T08:55:53;9.23;;;4.53;;
72325;SDS011;60278;47.980;18.780;2024-02-21T08:58:55;8.80;;;3.95;;
72325;SDS011;60278;47.980;18.780;2024-02-21T09:02:01;8.82;;;4.25;;
72325;SDS011;60278;47.980;18.780;2024-02-21T09:05:05;12.52;;;4.20;;
72325;SDS011;60278;47.980;18.780;2024-02-21T09:08:07;11.97;;;4.70;;
72325;SDS011;60278;47.980;18.780;2024-02-21T09:11:10;7.60;;;4.18;;
72325;SDS011;60278;47.980;18.780;2024-02-21T09:14:12;8.27;;;4.32;;
72325;SDS011;60278;47.980;18.780;2024-02-21T09:17:14;16.65;;;4.85;;
72325;SDS011;60278;47.980;18.780;2024-02-21T09:20:18;10.65;;;3.95;;
72325;SDS011;60278;47.980;18.780;2024-02-21T09:23:23;9.30;;;3.67;;
72325;SDS011;60278;47.980;18.780;2024-02-21T09:26:25;8.43;;;3.33;;
72325;SDS011;60278;47.980;18.780;2024-02-21T09:29:28;7.43;;;3.50;;
72325;SDS011;60278;47.980;18.780;2024-02-21T09:32:30;10.25;;;4.30;;
72325;SDS011;60278;47.980;18.780;2024-02-21T09:35:32;9.30;;;4.35;;
72325;SDS011;60278;47.980;18.780;2024-02-21T09:38:35;17.20;;;4.00;;
72325;SDS011;60278;47.980;18.780;2024-02-21T09:41:37;10.02;;;4.03;;
72325;SDS011;60278;47.980;18.780;2024-02-21T09:44:42;13.40;;;3.08;;
72325;SDS011;60278;47.980;18.780;2024-02-21T09:51:07;12.13;;;3.55;;
72325;SDS011;60278;47.980;18.780;2024-02-21T09:54:10;11.10;;;3.23;;
72325;SDS011;60278;47.980;18.780;2024-02-21T09:57:17;9.57;;;3.15;;
72325;SDS011;60278;47.980;18.780;2024-02-21T10:00:20;9.65;;;3.40;;
72325;SDS011;60278;47.980;18.780;2024-02-21T10:03:24;11.07;;;3.58;;
72325;SDS011;60278;47.980;18.780;2024-02-21T10:06:26;10.27;;;3.58;;
72325;SDS011;60278;47.980;18.780;2024-02-21T10:09:28;10.13;;;3.40;;
72325;SDS011;60278;47.980;18.780;2024-02-21T10:12:31;12.68;;;3.33;;
72325;SDS011;60278;47.980;18.780;2024-02-21T10:15:33;11.70;;;3.75;;
72325;SDS011;60278;47.980;18.780;2024-02-21T10:18:35;12.10;;;3.45;;
72325;SDS011;60278;47.980;18.780;2024-02-21T10:21:38;10.13;;;4.20;;
72325;SDS011;60278;47.980;18.780;2024-02-21T10:24:40;12.50;;;4.47;;
72325;SDS011;60278;47.980;18.780;2024-02-21T10:27:45;7.25;;;3.20;;
72325;SDS011;60278;47.980;18.780;2024-02-21T10:30:50;9.10;;;3.65;;
72325;SDS011;60278;47.980;18.780;2024-02-21T10:33:54;8.70;;;3.33;;
72325;SDS011;60278;47.980;18.780;2024-02-21T10:37:00;11.23;;;4.05;;
72325;SDS011;60278;47.980;18.780;2024-02-21T10:40:02;11.13;;;3.57;;
72325;SDS011;60278;47.980;18.780;2024-02-21T10:43:08;14.77;;;3.63;;
72325;SDS011;60278;47.980;18.780;2024-02-21T10:46:13;10.95;;;3.65;;
72325;SDS011;60278;47.980;18.780;2024-02-21T10:49:19;12.88;;;4.30;;
72325;SDS011;60278;47.980;18.780;2024-02-21T10:55:46;14.97;;;4.17;;
72325;SDS011;60278;47.980;18.780;2024-02-21T10:58:50;9.68;;;4.35;;
72325;SDS011;60278;47.980;18.780;2024-02-21T11:01:52;11.32;;;3.65;;
72325;SDS011;60278;47.980;18.780;2024-02-21T11:05:00;8.52;;;3.95;;
72325;SDS011;60278;47.980;18.780;2024-02-21T11:08:03;10.50;;;4.47;;
72325;SDS011;60278;47.980;18.780;2024-02-21T11:11:07;9.73;;;3.80;;
72325;SDS011;60278;47.980;18.780;2024-02-21T11:14:22;11.70;;;4.03;;
72325;SDS011;60278;47.980;18.780;2024-02-21T11:17:24;14.00;;;4.65;;
72325;SDS011;60278;47.980;18.780;2024-02-21T11:20:32;14.90;;;4.15;;
72325;SDS011;60278;47.980;18.780;2024-02-21T11:23:36;10.00;;;3.97;;
72325;SDS011;60278;47.980;18.780;2024-02-21T11:26:38;13.70;;;4.27;;
72325;SDS011;60278;47.980;18.780;2024-02-21T11:29:43;10.88;;;4.55;;
72325;SDS011;60278;47.980;18.780;2024-02-21T11:32:45;8.05;;;3.97;;
72325;SDS011;60278;47.980;18.780;2024-02-21T11:35:49;13.32;;;4.45;;
72325;SDS011;60278;47.980;18.780;2024-02-21T11:38:52;15.48;;;4.85;;
72325;SDS011;60278;47.980;18.780;2024-02-21T11:42:02;14.23;;;4.63;;
72325;SDS011;60278;47.980;18.780;2024-02-21T11:45:04;10.27;;;3.88;;
72325;SDS011;60278;47.980;18.780;2024-02-21T11:48:07;12.05;;;4.50;;
72325;SDS011;60278;47.980;18.780;2024-02-21T11:51:09;10.32;;;4.07;;
72325;SDS011;60278;47.980;18.780;2024-02-21T11:54:11;9.88;;;3.42;;
72325;SDS011;60278;47.980;18.780;2024-02-21T11:57:18;9.43;;;3.60;;
72325;SDS011;60278;47.980;18.780;2024-02-21T12:00:20;11.80;;;4.05;;
72325;SDS011;60278;47.980;18.780;2024-02-21T12:03:22;12.18;;;3.67;;
72325;SDS011;60278;47.980;18.780;2024-02-21T12:06:24;10.25;;;3.70;;
72325;SDS011;60278;47.980;18.780;2024-02-21T12:09:27;15.00;;;3.67;;
72325;SDS011;60278;47.980;18.780;2024-02-21T12:12:29;10.10;;;3.37;;
72325;SDS011;60278;47.980;18.780;2024-02-21T12:15:31;11.32;;;3.00;;
72325;SDS011;60278;47.980;18.780;2024-02-21T12:18:33;8.77;;;2.80;;
72325;SDS011;60278;47.980;18.780;2024-02-21T12:21:36;10.63;;;2.92;;
72325;SDS011;60278;47.980;18.780;2024-02-21T12:24:41;7.43;;;2.50;;
72325;SDS011;60278;47.980;18.780;2024-02-21T12:27:48;12.00;;;3.40;;
72325;SDS011;60278;47.980;18.780;2024-02-21T12:30:51;9.20;;;2.88;;
72325;SDS011;60278;47.980;18.780;2024-02-21T12:33:54;10.70;;;3.47;;
72325;SDS011;60278;47.980;18.780;2024-02-21T12:36:57;10.82;;;3.03;;
72325;SDS011;60278;47.980;18.780;2024-02-21T12:39:59;8.77;;;2.72;;
72325;SDS011;60278;47.980;18.780;2024-02-21T12:43:01;9.63;;;2.67;;
72325;SDS011;60278;47.980;18.780;2024-02-21T12:46:06;9.48;;;2.95;;
72325;SDS011;60278;47.980;18.780;2024-02-21T12:54:44;12.18;;;2.67;;
72325;SDS011;60278;47.980;18.780;2024-02-21T12:57:46;11.13;;;3.40;;
72325;SDS011;60278;47.980;18.780;2024-02-21T13:00:51;17.07;;;5.53;;
72325;SDS011;60278;47.980;18.780;2024-02-21T13:03:53;21.30;;;7.13;;
72325;SDS011;60278;47.980;18.780;2024-02-21T13:06:56;13.25;;;4.25;;
72325;SDS011;60278;47.980;18.780;2024-02-21T13:09:58;7.18;;;3.17;;
72325;SDS011;60278;47.980;18.780;2024-02-21T13:13:01;11.10;;;3.65;;
72325;SDS011;60278;47.980;18.780;2024-02-21T13:16:03;11.27;;;3.40;;
72325;SDS011;60278;47.980;18.780;2024-02-21T13:19:06;13.45;;;3.42;;
72325;SDS011;60278;47.980;18.780;2024-02-21T13:22:09;9.82;;;3.90;;
72325;SDS011;60278;47.980;18.780;2024-02-21T13:25:11;13.05;;;3.33;;
72325;SDS011;60278;47.980;18.780;2024-02-21T13:28:17;11.32;;;3.65;;
72325;SDS011;60278;47.980;18.780;2024-02-21T13:31:19;8.70;;;3.10;;
72325;SDS011;60278;47.980;18.780;2024-02-21T13:34:22;12.02;;;3.42;;
72325;SDS011;60278;47.980;18.780;2024-02-21T13:37:26;10.80;;;3.63;;
72325;SDS011;60278;47.980;18.780;2024-02-21T13:40:28;12.10;;;3.88;;
72325;SDS011;60278;47.980;18.780;2024-02-21T13:43:31;12.85;;;3.63;;
72325;SDS011;60278;47.980;18.780;2024-02-21T13:46:33;11.43;;;3.73;;
72325;SDS011;60278;47.980;18.780;2024-02-21T13:49:35;13.63;;;4.15;;
72325;SDS011;60278;47.980;18.780;2024-02-21T13:52:38;9.95;;;3.60;;
72325;SDS011;60278;47.980;18.780;2024-02-21T13:55:40;10.23;;;3.65;;
72325;SDS011;60278;47.980;18.780;2024-02-21T13:58:43;7.93;;;3.47;;
72325;SDS011;60278;47.980;18.780;2024-02-21T14:01:45;8.83;;;3.17;;
72325;SDS011;60278;47.980;18.780;2024-02-21T14:04:47;7.75;;;3.40;;
72325;SDS011;60278;47.980;18.780;2024-02-21T14:07:49;11.80;;;4.45;;
72325;SDS011;60278;47.980;18.780;2024-02-21T14:10:51;9.60;;;4.07;;
72325;SDS011;60278;47.980;18.780;2024-02-21T14:13:53;14.18;;;4.70;;
72325;SDS011;60278;47.980;18.780;2024-02-21T14:16:59;11.10;;;3.87;;
72325;SDS011;60278;47.980;18.780;2024-02-21T14:20:02;16.75;;;5.20;;
72325;SDS011;60278;47.980;18.780;2024-02-21T14:23:06;10.57;;;4.10;;
72325;SDS011;60278;47.980;18.780;2024-02-21T14:26:09;15.10;;;4.47;;
72325;SDS011;60278;47.980;18.780;2024-02-21T14:29:11;12.13;;;4.97;;
72325;SDS011;60278;47.980;18.780;2024-02-21T14:32:15;10.03;;;4.00;;
72325;SDS011;60278;47.980;18.780;2024-02-21T14:35:17;13.63;;;4.30;;
72325;SDS011;60278;47.980;18.780;2024-02-21T14:38:19;11.25;;;3.42;;
72325;SDS011;60278;47.980;18.780;2024-02-21T14:41:21;12.25;;;4.47;;
72325;SDS011;60278;47.980;18.780;2024-02-21T14:44:23;13.32;;;5.03;;
72325;SDS011;60278;47.980;18.780;2024-02-21T14:47:25;8.97;;;4.63;;
72325;SDS011;60278;47.980;18.780;2024-02-21T14:50:27;10.18;;;4.03;;
72325;SDS011;60278;47.980;18.780;2024-02-21T14:53:30;12.82;;;4.15;;
72325;SDS011;60278;47.980;18.780;2024-02-21T14:56:35;11.15;;;4.03;;
72325;SDS011;60278;47.980;18.780;2024-02-21T14:59:37;12.40;;;4.03;;
72325;SDS011;60278;47.980;18.780;2024-02-21T15:02:39;8.00;;;4.00;;
72325;SDS011;60278;47.980;18.780;2024-02-21T15:05:41;9.73;;;4.28;;
72325;SDS011;60278;47.980;18.780;2024-02-21T15:08:43;9.40;;;4.43;;
72325;SDS011;60278;47.980;18.780;2024-02-21T15:11:45;12.60;;;5.60;;
72325;SDS011;60278;47.980;18.780;2024-02-21T15:14:48;20.60;;;12.48;;
72325;SDS011;60278;47.980;18.780;2024-02-21T15:17:50;20.00;;;9.23;;
72325;SDS011;60278;47.980;18.780;2024-02-21T15:20:52;12.10;;;5.60;;
72325;SDS011;60278;47.980;18.780;2024-02-21T15:23:55;11.75;;;5.15;;
72325;SDS011;60278;47.980;18.780;2024-02-21T15:26:57;9.60;;;4.50;;
72325;SDS011;60278;47.980;18.780;2024-02-21T15:30:01;13.30;;;4.65;;
72325;SDS011;60278;47.980;18.780;2024-02-21T15:33:03;10.93;;;4.10;;
72325;SDS011;60278;47.980;18.780;2024-02-21T15:36:06;8.18;;;4.50;;
72325;SDS011;60278;47.980;18.780;2024-02-21T15:39:09;13.50;;;6.85;;
72325;SDS011;60278;47.980;18.780;2024-02-21T15:42:12;11.60;;;5.25;;
72325;SDS011;60278;47.980;18.780;2024-02-21T15:45:14;15.57;;;5.25;;
72325;SDS011;60278;47.980;18.780;2024-02-21T15:48:16;14.63;;;5.87;;
72325;SDS011;60278;47.980;18.780;2024-02-21T15:51:19;17.80;;;9.38;;
72325;SDS011;60278;47.980;18.780;2024-02-21T15:54:22;82.05;;;35.65;;
72325;SDS011;60278;47.980;18.780;2024-02-21T15:57:28;31.63;;;17.33;;
72325;SDS011;60278;47.980;18.780;2024-02-21T16:00:30;12.25;;;7.38;;
72325;SDS011;60278;47.980;18.780;2024-02-21T16:03:34;12.63;;;4.60;;
72325;SDS011;60278;47.980;18.780;2024-02-21T16:06:38;12.40;;;4.65;;
72325;SDS011;60278;47.980;18.780;2024-02-21T16:09:40;12.82;;;4.68;;
72325;SDS011;60278;47.980;18.780;2024-02-21T16:12:46;13.55;;;5.00;;
72325;SDS011;60278;47.980;18.780;2024-02-21T16:15:48;10.98;;;4.95;;
72325;SDS011;60278;47.980;18.780;2024-02-21T16:18:50;12.10;;;4.77;;
72325;SDS011;60278;47.980;18.780;2024-02-21T16:21:52;20.30;;;7.65;;
72325;SDS011;60278;47.980;18.780;2024-02-21T16:24:55;22.10;;;7.15;;
72325;SDS011;60278;47.980;18.780;2024-02-21T16:27:59;25.40;;;12.60;;
72325;SDS011;60278;47.980;18.780;2024-02-21T16:31:02;16.25;;;7.30;;
72325;SDS011;60278;47.980;18.780;2024-02-21T16:34:04;12.87;;;6.23;;
72325;SDS011;60278;47.980;18.780;2024-02-21T16:37:10;15.43;;;5.82;;
72325;SDS011;60278;47.980;18.780;2024-02-21T16:40:12;20.55;;;6.18;;
72325;SDS011;60278;47.980;18.780;2024-02-21T16:43:15;16.65;;;5.40;;
72325;SDS011;60278;47.980;18.780;2024-02-21T16:46:17;12.80;;;6.00;;
72325;SDS011;60278;47.980;18.780;2024-02-21T16:49:20;16.13;;;6.17;;
72325;SDS011;60278;47.980;18.780;2024-02-21T16:52:23;15.93;;;6.25;;
72325;SDS011;60278;47.980;18.780;2024-02-21T16:55:25;14.32;;;6.13;;
72325;SDS011;60278;47.980;18.780;2024-02-21T16:58:27;39.35;;;23.05;;
72325;SDS011;60278;47.980;18.780;2024-02-21T17:01:35;104.93;;;57.92;;
72325;SDS011;60278;47.980;18.780;2024-02-21T17:04:42;73.97;;;37.63;;
72325;SDS011;60278;47.980;18.780;2024-02-21T17:07:44;22.00;;;8.65;;
72325;SDS011;60278;47.980;18.780;2024-02-21T17:10:46;19.15;;;8.68;;
72325;SDS011;60278;47.980;18.780;2024-02-21T17:13:49;17.63;;;8.55;;
72325;SDS011;60278;47.980;18.780;2024-02-21T17:16:52;23.90;;;7.95;;
72325;SDS011;60278;47.980;18.780;2024-02-21T17:19:55;49.90;;;26.63;;
72325;SDS011;60278;47.980;18.780;2024-02-21T17:22:58;49.28;;;26.58;;
72325;SDS011;60278;47.980;18.780;2024-02-21T17:26:00;63.55;;;30.25;;
72325;SDS011;60278;47.980;18.780;2024-02-21T17:29:02;27.25;;;10.50;;
72325;SDS011;60278;47.980;18.780;2024-02-21T17:32:05;18.80;;;10.30;;
72325;SDS011;60278;47.980;18.780;2024-02-21T17:35:08;20.70;;;10.33;;
72325;SDS011;60278;47.980;18.780;2024-02-21T17:38:11;19.10;;;10.15;;
72325;SDS011;60278;47.980;18.780;2024-02-21T17:41:13;12.57;;;6.38;;
72325;SDS011;60278;47.980;18.780;2024-02-21T17:44:16;16.90;;;8.32;;
72325;SDS011;60278;47.980;18.780;2024-02-21T17:47:18;15.02;;;6.28;;
72325;SDS011;60278;47.980;18.780;2024-02-21T17:50:21;19.57;;;7.07;;
72325;SDS011;60278;47.980;18.780;2024-02-21T17:53:23;43.70;;;19.25;;
72325;SDS011;60278;47.980;18.780;2024-02-21T17:56:25;86.90;;;33.22;;
72325;SDS011;60278;47.980;18.780;2024-02-21T17:59:27;30.55;;;12.38;;
72325;SDS011;60278;47.980;18.780;2024-02-21T18:02:30;16.88;;;8.38;;
72325;SDS011;60278;47.980;18.780;2024-02-21T18:05:32;13.23;;;6.67;;